sensor_id;sensor_type;location;lat;lon;timestamp;P1;durP1;ratioP1;P2;durP2;ratioP2
52776;SDS011;38656;54.260;20.822;2024-02-16T00:01:20;62.67;;;53.15;;
52776;SDS011;38656;54.260;20.822;2024-02-16T00:03:46;53.20;;;47.67;;
52776;SDS011;38656;54.260;20.822;2024-02-16T00:06:12;52.20;;;46.50;;
52776;SDS011;38656;54.260;20.822;2024-02-16T00:08:38;54.33;;;48.47;;
52776;SDS011;38656;54.260;20.822;2024-02-16T00:11:05;56.60;;;49.38;;
52776;SDS011;38656;54.260;20.822;2024-02-16T00:13:31;52.40;;;46.88;;
52776;SDS011;38656;54.260;20.822;2024-02-16T00:15:57;53.60;;;47.70;;
52776;SDS011;38656;54.260;20.822;2024-02-16T00:18:23;53.45;;;48.03;;
52776;SDS011;38656;54.260;20.822;2024-02-16T00:20:49;56.80;;;51.03;;
52776;SDS011;38656;54.260;20.822;2024-02-16T00:23:16;52.63;;;47.15;;
52776;SDS011;38656;54.260;20.822;2024-02-16T00:25:44;59.90;;;50.92;;
52776;SDS011;38656;54.260;20.822;2024-02-16T00:28:10;53.35;;;47.85;;
52776;SDS011;38656;54.260;20.822;2024-02-16T00:30:36;55.30;;;49.67;;
52776;SDS011;38656;54.260;20.822;2024-02-16T00:33:03;53.70;;;48.30;;
52776;SDS011;38656;54.260;20.822;2024-02-16T00:35:29;60.78;;;54.10;;
52776;SDS011;38656;54.260;20.822;2024-02-16T00:37:58;55.25;;;48.97;;
52776;SDS011;38656;54.260;20.822;2024-02-16T00:40:25;53.75;;;48.17;;
52776;SDS011;38656;54.260;20.822;2024-02-16T00:42:54;51.92;;;46.53;;
52776;SDS011;38656;54.260;20.822;2024-02-16T00:45:20;51.13;;;45.55;;
52776;SDS011;38656;54.260;20.822;2024-02-16T00:47:47;54.22;;;48.42;;
52776;SDS011;38656;54.260;20.822;2024-02-16T00:50:14;60.63;;;50.53;;
52776;SDS011;38656;54.260;20.822;2024-02-16T00:52:40;54.92;;;46.47;;
52776;SDS011;38656;54.260;20.822;2024-02-16T00:55:07;56.92;;;51.30;;
52776;SDS011;38656;54.260;20.822;2024-02-16T00:57:34;48.58;;;43.55;;
52776;SDS011;38656;54.260;20.822;2024-02-16T01:00:01;50.00;;;44.25;;
52776;SDS011;38656;54.260;20.822;2024-02-16T01:02:28;48.65;;;43.63;;
52776;SDS011;38656;54.260;20.822;2024-02-16T01:04:54;46.88;;;42.10;;
52776;SDS011;38656;54.260;20.822;2024-02-16T01:07:26;60.55;;;44.92;;
52776;SDS011;38656;54.260;20.822;2024-02-16T01:09:53;48.92;;;43.22;;
52776;SDS011;38656;54.260;20.822;2024-02-16T01:12:21;50.03;;;44.90;;
52776;SDS011;38656;54.260;20.822;2024-02-16T01:14:47;50.92;;;44.33;;
52776;SDS011;38656;54.260;20.822;2024-02-16T01:17:14;49.33;;;43.75;;
52776;SDS011;38656;54.260;20.822;2024-02-16T01:19:40;48.88;;;43.63;;
52776;SDS011;38656;54.260;20.822;2024-02-16T01:22:06;46.92;;;42.08;;
52776;SDS011;38656;54.260;20.822;2024-02-16T01:24:32;48.20;;;42.20;;
52776;SDS011;38656;54.260;20.822;2024-02-16T01:26:58;49.67;;;44.38;;
52776;SDS011;38656;54.260;20.822;2024-02-16T01:29:24;49.42;;;44.33;;
52776;SDS011;38656;54.260;20.822;2024-02-16T01:31:50;48.20;;;41.95;;
52776;SDS011;38656;54.260;20.822;2024-02-16T01:34:16;49.50;;;44.50;;
52776;SDS011;38656;54.260;20.822;2024-02-16T01:36:42;57.83;;;48.42;;
52776;SDS011;38656;54.260;20.822;2024-02-16T01:39:09;50.15;;;45.15;;
52776;SDS011;38656;54.260;20.822;2024-02-16T01:41:38;50.38;;;45.08;;
52776;SDS011;38656;54.260;20.822;2024-02-16T01:44:04;49.05;;;43.78;;
52776;SDS011;38656;54.260;20.822;2024-02-16T01:46:31;52.25;;;46.58;;
52776;SDS011;38656;54.260;20.822;2024-02-16T01:48:58;51.78;;;46.53;;
52776;SDS011;38656;54.260;20.822;2024-02-16T01:51:25;49.15;;;44.05;;
52776;SDS011;38656;54.260;20.822;2024-02-16T01:53:52;51.05;;;45.67;;
52776;SDS011;38656;54.260;20.822;2024-02-16T01:56:20;55.45;;;49.92;;
52776;SDS011;38656;54.260;20.822;2024-02-16T01:58:47;56.45;;;43.92;;
52776;SDS011;38656;54.260;20.822;2024-02-16T02:01:13;56.85;;;47.00;;
52776;SDS011;38656;54.260;20.822;2024-02-16T02:03:39;57.83;;;48.28;;
52776;SDS011;38656;54.260;20.822;2024-02-16T02:06:06;54.65;;;49.13;;
52776;SDS011;38656;54.260;20.822;2024-02-16T02:08:32;50.25;;;44.90;;
52776;SDS011;38656;54.260;20.822;2024-02-16T02:10:59;53.08;;;47.65;;
52776;SDS011;38656;54.260;20.822;2024-02-16T02:13:25;52.85;;;46.83;;
52776;SDS011;38656;54.260;20.822;2024-02-16T02:15:51;50.90;;;45.50;;
52776;SDS011;38656;54.260;20.822;2024-02-16T02:18:18;55.47;;;47.22;;
52776;SDS011;38656;54.260;20.822;2024-02-16T02:20:44;53.30;;;47.67;;
52776;SDS011;38656;54.260;20.822;2024-02-16T02:23:11;51.63;;;45.72;;
52776;SDS011;38656;54.260;20.822;2024-02-16T02:25:37;50.70;;;45.53;;
52776;SDS011;38656;54.260;20.822;2024-02-16T02:28:05;55.20;;;45.00;;
52776;SDS011;38656;54.260;20.822;2024-02-16T02:30:31;50.22;;;45.20;;
52776;SDS011;38656;54.260;20.822;2024-02-16T02:32:57;51.47;;;46.05;;
52776;SDS011;38656;54.260;20.822;2024-02-16T02:35:23;51.42;;;46.17;;
52776;SDS011;38656;54.260;20.822;2024-02-16T02:37:49;51.17;;;44.83;;
52776;SDS011;38656;54.260;20.822;2024-02-16T02:40:16;53.90;;;44.60;;
52776;SDS011;38656;54.260;20.822;2024-02-16T02:42:42;49.67;;;44.70;;
52776;SDS011;38656;54.260;20.822;2024-02-16T02:45:09;53.15;;;45.05;;
52776;SDS011;38656;54.260;20.822;2024-02-16T02:47:36;53.45;;;47.75;;
52776;SDS011;38656;54.260;20.822;2024-02-16T02:50:02;55.22;;;49.13;;
52776;SDS011;38656;54.260;20.822;2024-02-16T02:52:29;47.08;;;42.17;;
52776;SDS011;38656;54.260;20.822;2024-02-16T02:54:55;50.70;;;45.38;;
52776;SDS011;38656;54.260;20.822;2024-02-16T02:57:21;47.45;;;42.28;;
52776;SDS011;38656;54.260;20.822;2024-02-16T02:59:47;46.75;;;41.88;;
52776;SDS011;38656;54.260;20.822;2024-02-16T03:02:14;46.22;;;41.47;;
52776;SDS011;38656;54.260;20.822;2024-02-16T03:04:40;45.65;;;41.00;;
52776;SDS011;38656;54.260;20.822;2024-02-16T03:07:06;45.15;;;40.35;;
52776;SDS011;38656;54.260;20.822;2024-02-16T03:09:32;44.13;;;39.45;;
52776;SDS011;38656;54.260;20.822;2024-02-16T03:11:58;46.58;;;40.88;;
52776;SDS011;38656;54.260;20.822;2024-02-16T03:14:24;47.58;;;40.58;;
52776;SDS011;38656;54.260;20.822;2024-02-16T03:16:50;42.80;;;38.17;;
52776;SDS011;38656;54.260;20.822;2024-02-16T03:19:17;44.33;;;39.78;;
52776;SDS011;38656;54.260;20.822;2024-02-16T03:21:43;42.80;;;38.22;;
52776;SDS011;38656;54.260;20.822;2024-02-16T03:24:11;44.13;;;39.55;;
52776;SDS011;38656;54.260;20.822;2024-02-16T03:26:37;46.90;;;41.80;;
52776;SDS011;38656;54.260;20.822;2024-02-16T03:29:03;54.65;;;44.33;;
52776;SDS011;38656;54.260;20.822;2024-02-16T03:31:29;46.47;;;41.63;;
52776;SDS011;38656;54.260;20.822;2024-02-16T03:33:56;47.33;;;41.90;;
52776;SDS011;38656;54.260;20.822;2024-02-16T03:36:23;44.88;;;40.38;;
52776;SDS011;38656;54.260;20.822;2024-02-16T03:38:49;48.22;;;40.63;;
52776;SDS011;38656;54.260;20.822;2024-02-16T03:41:19;51.95;;;41.25;;
52776;SDS011;38656;54.260;20.822;2024-02-16T03:43:47;48.42;;;43.58;;
52776;SDS011;38656;54.260;20.822;2024-02-16T03:46:13;47.85;;;42.97;;
52776;SDS011;38656;54.260;20.822;2024-02-16T03:48:39;45.30;;;40.47;;
52776;SDS011;38656;54.260;20.822;2024-02-16T03:51:06;49.65;;;41.78;;
52776;SDS011;38656;54.260;20.822;2024-02-16T03:53:32;52.72;;;46.88;;
52776;SDS011;38656;54.260;20.822;2024-02-16T03:55:59;55.10;;;48.47;;
52776;SDS011;38656;54.260;20.822;2024-02-16T03:58:25;56.10;;;50.35;;
52776;SDS011;38656;54.260;20.822;2024-02-16T04:00:51;54.88;;;49.15;;
52776;SDS011;38656;54.260;20.822;2024-02-16T04:03:18;56.78;;;49.15;;
52776;SDS011;38656;54.260;20.822;2024-02-16T04:05:44;58.53;;;48.90;;
52776;SDS011;38656;54.260;20.822;2024-02-16T04:08:10;53.25;;;47.60;;
52776;SDS011;38656;54.260;20.822;2024-02-16T04:10:37;56.30;;;50.28;;
52776;SDS011;38656;54.260;20.822;2024-02-16T04:13:03;62.17;;;48.67;;
52776;SDS011;38656;54.260;20.822;2024-02-16T04:15:29;53.33;;;48.00;;
52776;SDS011;38656;54.260;20.822;2024-02-16T04:17:56;56.55;;;46.55;;
52776;SDS011;38656;54.260;20.822;2024-02-16T04:20:22;56.97;;;51.17;;
52776;SDS011;38656;54.260;20.822;2024-02-16T04:22:48;49.92;;;44.85;;
52776;SDS011;38656;54.260;20.822;2024-02-16T04:25:14;51.92;;;46.53;;
52776;SDS011;38656;54.260;20.822;2024-02-16T04:27:40;49.60;;;43.88;;
52776;SDS011;38656;54.260;20.822;2024-02-16T04:30:06;49.03;;;43.67;;
52776;SDS011;38656;54.260;20.822;2024-02-16T04:32:33;79.50;;;59.67;;
52776;SDS011;38656;54.260;20.822;2024-02-16T04:34:59;54.35;;;48.50;;
52776;SDS011;38656;54.260;20.822;2024-02-16T04:37:25;58.10;;;52.30;;
52776;SDS011;38656;54.260;20.822;2024-02-16T04:39:51;57.05;;;49.03;;
52776;SDS011;38656;54.260;20.822;2024-02-16T04:42:18;55.15;;;45.65;;
52776;SDS011;38656;54.260;20.822;2024-02-16T04:44:44;47.08;;;39.92;;
52776;SDS011;38656;54.260;20.822;2024-02-16T04:47:10;43.85;;;39.50;;
52776;SDS011;38656;54.260;20.822;2024-02-16T04:49:37;43.80;;;38.95;;
52776;SDS011;38656;54.260;20.822;2024-02-16T04:52:03;48.28;;;43.55;;
52776;SDS011;38656;54.260;20.822;2024-02-16T04:54:30;47.22;;;42.40;;
52776;SDS011;38656;54.260;20.822;2024-02-16T04:56:56;47.58;;;42.72;;
52776;SDS011;38656;54.260;20.822;2024-02-16T04:59:22;74.82;;;48.03;;
52776;SDS011;38656;54.260;20.822;2024-02-16T05:01:48;59.72;;;51.28;;
52776;SDS011;38656;54.260;20.822;2024-02-16T05:04:14;46.63;;;41.80;;
52776;SDS011;38656;54.260;20.822;2024-02-16T05:06:44;65.90;;;49.80;;
52776;SDS011;38656;54.260;20.822;2024-02-16T05:09:15;48.90;;;42.92;;
52776;SDS011;38656;54.260;20.822;2024-02-16T05:11:42;104.18;;;59.08;;
52776;SDS011;38656;54.260;20.822;2024-02-16T05:14:09;277.27;;;96.88;;
52776;SDS011;38656;54.260;20.822;2024-02-16T05:16:45;186.90;;;76.40;;
52776;SDS011;38656;54.260;20.822;2024-02-16T05:19:12;70.13;;;47.63;;
52776;SDS011;38656;54.260;20.822;2024-02-16T05:21:38;53.55;;;46.60;;
52776;SDS011;38656;54.260;20.822;2024-02-16T05:24:04;51.75;;;46.20;;
52776;SDS011;38656;54.260;20.822;2024-02-16T05:26:31;46.58;;;41.67;;
52776;SDS011;38656;54.260;20.822;2024-02-16T05:28:57;57.30;;;47.35;;
52776;SDS011;38656;54.260;20.822;2024-02-16T05:31:23;181.38;;;75.55;;
52776;SDS011;38656;54.260;20.822;2024-02-16T05:33:50;49.88;;;44.20;;
52776;SDS011;38656;54.260;20.822;2024-02-16T05:36:19;188.95;;;72.60;;
52776;SDS011;38656;54.260;20.822;2024-02-16T05:38:49;45.05;;;40.75;;
52776;SDS011;38656;54.260;20.822;2024-02-16T05:41:16;346.40;;;137.98;;
52776;SDS011;38656;54.260;20.822;2024-02-16T05:43:43;71.20;;;53.90;;
52776;SDS011;38656;54.260;20.822;2024-02-16T05:46:16;50.60;;;45.50;;
52776;SDS011;38656;54.260;20.822;2024-02-16T05:48:45;52.17;;;46.78;;
52776;SDS011;38656;54.260;20.822;2024-02-16T05:51:12;48.47;;;43.42;;
52776;SDS011;38656;54.260;20.822;2024-02-16T05:53:38;68.40;;;50.28;;
52776;SDS011;38656;54.260;20.822;2024-02-16T05:56:06;331.27;;;114.78;;
52776;SDS011;38656;54.260;20.822;2024-02-16T05:58:32;134.88;;;67.93;;
52776;SDS011;38656;54.260;20.822;2024-02-16T06:01:00;47.28;;;42.45;;
52776;SDS011;38656;54.260;20.822;2024-02-16T06:03:26;49.85;;;44.67;;
52776;SDS011;38656;54.260;20.822;2024-02-16T06:05:52;143.32;;;65.05;;
52776;SDS011;38656;54.260;20.822;2024-02-16T06:08:18;51.80;;;46.28;;
52776;SDS011;38656;54.260;20.822;2024-02-16T06:10:45;223.85;;;90.28;;
52776;SDS011;38656;54.260;20.822;2024-02-16T06:13:18;67.35;;;49.65;;
52776;SDS011;38656;54.260;20.822;2024-02-16T06:15:46;49.03;;;44.03;;
52776;SDS011;38656;54.260;20.822;2024-02-16T06:18:12;60.63;;;49.33;;
52776;SDS011;38656;54.260;20.822;2024-02-16T06:20:38;142.43;;;71.85;;
52776;SDS011;38656;54.260;20.822;2024-02-16T06:23:04;114.85;;;62.28;;
52776;SDS011;38656;54.260;20.822;2024-02-16T06:25:31;48.35;;;43.35;;
52776;SDS011;38656;54.260;20.822;2024-02-16T06:27:57;41.15;;;36.85;;
52776;SDS011;38656;54.260;20.822;2024-02-16T06:30:23;196.38;;;85.95;;
52776;SDS011;38656;54.260;20.822;2024-02-16T06:32:50;45.92;;;40.97;;
52776;SDS011;38656;54.260;20.822;2024-02-16T06:35:16;42.67;;;38.70;;
52776;SDS011;38656;54.260;20.822;2024-02-16T06:37:43;41.35;;;37.30;;
52776;SDS011;38656;54.260;20.822;2024-02-16T06:40:09;170.45;;;79.75;;
52776;SDS011;38656;54.260;20.822;2024-02-16T06:42:35;47.03;;;41.95;;
52776;SDS011;38656;54.260;20.822;2024-02-16T06:45:02;52.88;;;47.45;;
52776;SDS011;38656;54.260;20.822;2024-02-16T06:47:30;43.30;;;38.90;;
52776;SDS011;38656;54.260;20.822;2024-02-16T06:49:56;52.65;;;45.58;;
52776;SDS011;38656;54.260;20.822;2024-02-16T06:52:22;51.50;;;45.92;;
52776;SDS011;38656;54.260;20.822;2024-02-16T06:54:49;59.53;;;50.42;;
52776;SDS011;38656;54.260;20.822;2024-02-16T06:57:16;63.97;;;57.65;;
52776;SDS011;38656;54.260;20.822;2024-02-16T06:59:42;52.33;;;47.38;;
52776;SDS011;38656;54.260;20.822;2024-02-16T07:02:09;68.35;;;61.55;;
52776;SDS011;38656;54.260;20.822;2024-02-16T07:04:36;49.30;;;44.20;;
52776;SDS011;38656;54.260;20.822;2024-02-16T07:07:04;40.08;;;35.75;;
52776;SDS011;38656;54.260;20.822;2024-02-16T07:09:31;41.17;;;34.72;;
52776;SDS011;38656;54.260;20.822;2024-02-16T07:11:57;40.88;;;36.60;;
52776;SDS011;38656;54.260;20.822;2024-02-16T07:14:24;58.75;;;52.95;;
52776;SDS011;38656;54.260;20.822;2024-02-16T07:16:50;54.03;;;48.80;;
52776;SDS011;38656;54.260;20.822;2024-02-16T07:19:16;100.57;;;85.47;;
52776;SDS011;38656;54.260;20.822;2024-02-16T07:21:43;72.93;;;65.47;;
52776;SDS011;38656;54.260;20.822;2024-02-16T07:24:09;44.33;;;39.85;;
52776;SDS011;38656;54.260;20.822;2024-02-16T07:26:35;44.30;;;39.80;;
52776;SDS011;38656;54.260;20.822;2024-02-16T07:29:02;42.55;;;38.42;;
52776;SDS011;38656;54.260;20.822;2024-02-16T07:31:34;38.67;;;33.15;;
52776;SDS011;38656;54.260;20.822;2024-02-16T07:34:01;38.17;;;34.17;;
52776;SDS011;38656;54.260;20.822;2024-02-16T07:36:28;40.58;;;36.47;;
52776;SDS011;38656;54.260;20.822;2024-02-16T07:38:55;37.40;;;30.75;;
52776;SDS011;38656;54.260;20.822;2024-02-16T07:41:21;46.40;;;41.78;;
52776;SDS011;38656;54.260;20.822;2024-02-16T07:43:47;44.72;;;40.20;;
52776;SDS011;38656;54.260;20.822;2024-02-16T07:46:13;37.17;;;33.30;;
52776;SDS011;38656;54.260;20.822;2024-02-16T07:48:39;37.45;;;33.95;;
52776;SDS011;38656;54.260;20.822;2024-02-16T07:51:06;35.35;;;31.73;;
52776;SDS011;38656;54.260;20.822;2024-02-16T07:53:32;32.63;;;29.33;;
52776;SDS011;38656;54.260;20.822;2024-02-16T07:55:59;30.45;;;27.17;;
52776;SDS011;38656;54.260;20.822;2024-02-16T07:58:25;41.67;;;37.38;;
52776;SDS011;38656;54.260;20.822;2024-02-16T08:00:51;45.08;;;40.47;;
52776;SDS011;38656;54.260;20.822;2024-02-16T08:03:19;42.33;;;34.92;;
52776;SDS011;38656;54.260;20.822;2024-02-16T08:05:45;53.65;;;48.60;;
52776;SDS011;38656;54.260;20.822;2024-02-16T08:08:11;38.47;;;33.50;;
52776;SDS011;38656;54.260;20.822;2024-02-16T08:10:37;38.75;;;35.08;;
52776;SDS011;38656;54.260;20.822;2024-02-16T08:13:03;42.70;;;38.70;;
52776;SDS011;38656;54.260;20.822;2024-02-16T08:15:30;49.15;;;40.70;;
52776;SDS011;38656;54.260;20.822;2024-02-16T08:17:56;56.63;;;46.92;;
52776;SDS011;38656;54.260;20.822;2024-02-16T08:20:22;56.25;;;48.83;;
52776;SDS011;38656;54.260;20.822;2024-02-16T08:22:48;70.40;;;55.22;;
52776;SDS011;38656;54.260;20.822;2024-02-16T08:25:15;50.55;;;40.17;;
52776;SDS011;38656;54.260;20.822;2024-02-16T08:27:41;105.35;;;54.13;;
52776;SDS011;38656;54.260;20.822;2024-02-16T08:30:07;202.05;;;84.93;;
52776;SDS011;38656;54.260;20.822;2024-02-16T08:32:34;124.50;;;61.03;;
52776;SDS011;38656;54.260;20.822;2024-02-16T08:35:00;236.00;;;97.15;;
52776;SDS011;38656;54.260;20.822;2024-02-16T08:37:28;187.02;;;83.68;;
52776;SDS011;38656;54.260;20.822;2024-02-16T08:39:54;169.40;;;87.88;;
52776;SDS011;38656;54.260;20.822;2024-02-16T08:42:20;56.35;;;47.63;;
52776;SDS011;38656;54.260;20.822;2024-02-16T08:44:47;57.53;;;46.60;;
52776;SDS011;38656;54.260;20.822;2024-02-16T08:47:14;71.28;;;51.92;;
52776;SDS011;38656;54.260;20.822;2024-02-16T08:49:41;48.65;;;37.75;;
52776;SDS011;38656;54.260;20.822;2024-02-16T08:52:07;63.40;;;52.47;;
52776;SDS011;38656;54.260;20.822;2024-02-16T08:54:33;45.72;;;38.25;;
52776;SDS011;38656;54.260;20.822;2024-02-16T08:57:00;36.83;;;28.90;;
52776;SDS011;38656;54.260;20.822;2024-02-16T08:59:26;42.67;;;37.45;;
52776;SDS011;38656;54.260;20.822;2024-02-16T09:01:53;40.05;;;35.85;;
52776;SDS011;38656;54.260;20.822;2024-02-16T09:04:19;40.60;;;32.80;;
52776;SDS011;38656;54.260;20.822;2024-02-16T09:06:45;31.50;;;28.30;;
52776;SDS011;38656;54.260;20.822;2024-02-16T09:09:14;29.58;;;26.75;;
52776;SDS011;38656;54.260;20.822;2024-02-16T09:11:40;41.03;;;36.28;;
52776;SDS011;38656;54.260;20.822;2024-02-16T09:14:06;26.20;;;23.42;;
52776;SDS011;38656;54.260;20.822;2024-02-16T09:16:32;26.92;;;24.17;;
52776;SDS011;38656;54.260;20.822;2024-02-16T09:19:00;32.00;;;27.65;;
52776;SDS011;38656;54.260;20.822;2024-02-16T09:21:26;27.13;;;24.30;;
52776;SDS011;38656;54.260;20.822;2024-02-16T09:23:54;35.80;;;30.35;;
52776;SDS011;38656;54.260;20.822;2024-02-16T09:26:26;36.38;;;31.08;;
52776;SDS011;38656;54.260;20.822;2024-02-16T09:28:55;24.10;;;21.45;;
52776;SDS011;38656;54.260;20.822;2024-02-16T09:31:22;23.13;;;20.73;;
52776;SDS011;38656;54.260;20.822;2024-02-16T09:33:48;23.20;;;20.88;;
52776;SDS011;38656;54.260;20.822;2024-02-16T09:36:17;25.90;;;22.75;;
52776;SDS011;38656;54.260;20.822;2024-02-16T09:38:43;29.38;;;22.48;;
52776;SDS011;38656;54.260;20.822;2024-02-16T09:41:09;22.08;;;19.90;;
52776;SDS011;38656;54.260;20.822;2024-02-16T09:43:36;22.13;;;19.35;;
52776;SDS011;38656;54.260;20.822;2024-02-16T09:46:04;19.88;;;17.42;;
52776;SDS011;38656;54.260;20.822;2024-02-16T09:48:30;19.48;;;17.55;;
52776;SDS011;38656;54.260;20.822;2024-02-16T09:50:57;19.85;;;17.52;;
52776;SDS011;38656;54.260;20.822;2024-02-16T09:53:25;19.73;;;17.52;;
52776;SDS011;38656;54.260;20.822;2024-02-16T09:55:52;18.02;;;16.40;;
52776;SDS011;38656;54.260;20.822;2024-02-16T09:58:19;19.05;;;17.05;;
52776;SDS011;38656;54.260;20.822;2024-02-16T10:00:52;20.65;;;18.45;;
52776;SDS011;38656;54.260;20.822;2024-02-16T10:03:29;21.58;;;17.60;;
52776;SDS011;38656;54.260;20.822;2024-02-16T10:06:09;20.50;;;18.33;;
52776;SDS011;38656;54.260;20.822;2024-02-16T10:08:49;20.08;;;17.92;;
52776;SDS011;38656;54.260;20.822;2024-02-16T10:11:16;18.13;;;16.40;;
52776;SDS011;38656;54.260;20.822;2024-02-16T10:16:21;18.25;;;16.38;;
52776;SDS011;38656;54.260;20.822;2024-02-16T10:18:47;17.60;;;15.80;;
52776;SDS011;38656;54.260;20.822;2024-02-16T10:21:13;17.77;;;14.65;;
52776;SDS011;38656;54.260;20.822;2024-02-16T10:23:57;16.52;;;14.82;;
52776;SDS011;38656;54.260;20.822;2024-02-16T10:26:25;26.25;;;14.95;;
52776;SDS011;38656;54.260;20.822;2024-02-16T10:28:53;21.42;;;16.05;;
52776;SDS011;38656;54.260;20.822;2024-02-16T10:31:24;15.90;;;14.20;;
52776;SDS011;38656;54.260;20.822;2024-02-16T10:34:01;27.23;;;23.95;;
52776;SDS011;38656;54.260;20.822;2024-02-16T10:36:31;20.98;;;15.82;;
52776;SDS011;38656;54.260;20.822;2024-02-16T10:38:59;17.60;;;13.15;;
52776;SDS011;38656;54.260;20.822;2024-02-16T10:41:42;14.15;;;12.82;;
52776;SDS011;38656;54.260;20.822;2024-02-16T10:44:10;13.30;;;12.02;;
52776;SDS011;38656;54.260;20.822;2024-02-16T10:46:37;16.25;;;13.85;;
52776;SDS011;38656;54.260;20.822;2024-02-16T10:49:05;17.35;;;14.43;;
52776;SDS011;38656;54.260;20.822;2024-02-16T10:51:31;27.17;;;16.55;;
52776;SDS011;38656;54.260;20.822;2024-02-16T10:54:03;20.67;;;17.02;;
52776;SDS011;38656;54.260;20.822;2024-02-16T10:56:37;14.25;;;12.77;;
52776;SDS011;38656;54.260;20.822;2024-02-16T10:59:09;31.02;;;20.20;;
52776;SDS011;38656;54.260;20.822;2024-02-16T11:01:38;16.85;;;12.18;;
52776;SDS011;38656;54.260;20.822;2024-02-16T11:04:13;18.50;;;11.88;;
52776;SDS011;38656;54.260;20.822;2024-02-16T11:06:56;13.30;;;11.95;;
52776;SDS011;38656;54.260;20.822;2024-02-16T11:09:27;13.48;;;12.07;;
52776;SDS011;38656;54.260;20.822;2024-02-16T11:11:55;13.82;;;12.45;;
52776;SDS011;38656;54.260;20.822;2024-02-16T11:14:35;50.50;;;38.72;;
52776;SDS011;38656;54.260;20.822;2024-02-16T11:17:07;17.85;;;13.45;;
52776;SDS011;38656;54.260;20.822;2024-02-16T11:19:36;23.30;;;20.00;;
52776;SDS011;38656;54.260;20.822;2024-02-16T11:22:05;40.05;;;13.30;;
52776;SDS011;38656;54.260;20.822;2024-02-16T11:24:33;10.77;;;9.77;;
52776;SDS011;38656;54.260;20.822;2024-02-16T11:27:04;10.10;;;8.25;;
52776;SDS011;38656;54.260;20.822;2024-02-16T11:29:37;12.02;;;8.45;;
52776;SDS011;38656;54.260;20.822;2024-02-16T11:32:04;16.58;;;11.05;;
52776;SDS011;38656;54.260;20.822;2024-02-16T11:34:31;11.25;;;9.88;;
52776;SDS011;38656;54.260;20.822;2024-02-16T11:36:59;10.82;;;8.30;;
52776;SDS011;38656;54.260;20.822;2024-02-16T11:39:30;15.73;;;12.55;;
52776;SDS011;38656;54.260;20.822;2024-02-16T11:42:11;12.93;;;9.93;;
52776;SDS011;38656;54.260;20.822;2024-02-16T11:44:40;35.20;;;10.38;;
52776;SDS011;38656;54.260;20.822;2024-02-16T11:47:20;10.23;;;9.13;;
52776;SDS011;38656;54.260;20.822;2024-02-16T11:50:00;14.80;;;11.60;;
52776;SDS011;38656;54.260;20.822;2024-02-16T11:52:30;14.25;;;12.75;;
52776;SDS011;38656;54.260;20.822;2024-02-16T11:54:57;27.10;;;24.27;;
52776;SDS011;38656;54.260;20.822;2024-02-16T11:57:28;18.45;;;13.85;;
52776;SDS011;38656;54.260;20.822;2024-02-16T11:59:55;9.25;;;6.43;;
52776;SDS011;38656;54.260;20.822;2024-02-16T12:02:23;12.30;;;8.45;;
52776;SDS011;38656;54.260;20.822;2024-02-16T12:04:57;18.13;;;9.10;;
52776;SDS011;38656;54.260;20.822;2024-02-16T12:07:27;10.30;;;6.65;;
52776;SDS011;38656;54.260;20.822;2024-02-16T12:09:57;8.05;;;7.00;;
52776;SDS011;38656;54.260;20.822;2024-02-16T12:12:24;7.50;;;6.40;;
52776;SDS011;38656;54.260;20.822;2024-02-16T12:14:52;15.02;;;13.02;;
52776;SDS011;38656;54.260;20.822;2024-02-16T12:17:19;6.93;;;6.00;;
52776;SDS011;38656;54.260;20.822;2024-02-16T12:19:46;10.65;;;6.72;;
52776;SDS011;38656;54.260;20.822;2024-02-16T12:22:16;25.45;;;14.77;;
52776;SDS011;38656;54.260;20.822;2024-02-16T12:24:46;10.73;;;8.55;;
52776;SDS011;38656;54.260;20.822;2024-02-16T12:27:15;25.77;;;12.48;;
52776;SDS011;38656;54.260;20.822;2024-02-16T12:29:41;28.83;;;24.23;;
52776;SDS011;38656;54.260;20.822;2024-02-16T12:32:08;85.65;;;52.97;;
52776;SDS011;38656;54.260;20.822;2024-02-16T12:34:35;30.83;;;25.08;;
52776;SDS011;38656;54.260;20.822;2024-02-16T12:37:05;49.40;;;36.70;;
52776;SDS011;38656;54.260;20.822;2024-02-16T12:39:36;82.30;;;47.58;;
52776;SDS011;38656;54.260;20.822;2024-02-16T12:42:03;19.48;;;13.05;;
52776;SDS011;38656;54.260;20.822;2024-02-16T12:44:29;35.95;;;22.90;;
52776;SDS011;38656;54.260;20.822;2024-02-16T12:46:56;31.92;;;14.07;;
52776;SDS011;38656;54.260;20.822;2024-02-16T12:49:22;8.02;;;5.90;;
52776;SDS011;38656;54.260;20.822;2024-02-16T12:51:49;18.73;;;6.57;;
52776;SDS011;38656;54.260;20.822;2024-02-16T12:54:16;8.25;;;5.65;;
52776;SDS011;38656;54.260;20.822;2024-02-16T12:56:45;9.75;;;5.53;;
52776;SDS011;38656;54.260;20.822;2024-02-16T12:59:11;11.75;;;5.97;;
52776;SDS011;38656;54.260;20.822;2024-02-16T13:01:37;5.97;;;5.10;;
52776;SDS011;38656;54.260;20.822;2024-02-16T13:04:04;6.40;;;5.68;;
52776;SDS011;38656;54.260;20.822;2024-02-16T13:06:31;13.07;;;5.53;;
52776;SDS011;38656;54.260;20.822;2024-02-16T13:08:57;5.78;;;4.40;;
52776;SDS011;38656;54.260;20.822;2024-02-16T13:11:23;14.45;;;6.80;;
52776;SDS011;38656;54.260;20.822;2024-02-16T13:13:49;11.35;;;8.18;;
52776;SDS011;38656;54.260;20.822;2024-02-16T13:16:16;22.95;;;15.63;;
52776;SDS011;38656;54.260;20.822;2024-02-16T13:18:43;10.32;;;7.80;;
52776;SDS011;38656;54.260;20.822;2024-02-16T13:21:09;9.02;;;6.97;;
52776;SDS011;38656;54.260;20.822;2024-02-16T13:23:35;13.07;;;6.80;;
52776;SDS011;38656;54.260;20.822;2024-02-16T13:26:01;7.75;;;6.20;;
52776;SDS011;38656;54.260;20.822;2024-02-16T13:28:29;9.48;;;6.47;;
52776;SDS011;38656;54.260;20.822;2024-02-16T13:30:55;162.95;;;92.18;;
52776;SDS011;38656;54.260;20.822;2024-02-16T13:33:22;198.43;;;94.05;;
52776;SDS011;38656;54.260;20.822;2024-02-16T13:35:48;273.48;;;128.93;;
52776;SDS011;38656;54.260;20.822;2024-02-16T13:38:15;28.45;;;13.18;;
52776;SDS011;38656;54.260;20.822;2024-02-16T13:40:41;19.38;;;7.07;;
52776;SDS011;38656;54.260;20.822;2024-02-16T13:43:08;9.55;;;6.18;;
52776;SDS011;38656;54.260;20.822;2024-02-16T13:45:50;13.73;;;6.97;;
52776;SDS011;38656;54.260;20.822;2024-02-16T13:48:17;29.65;;;22.60;;
52776;SDS011;38656;54.260;20.822;2024-02-16T13:50:45;28.65;;;11.52;;
52776;SDS011;38656;54.260;20.822;2024-02-16T13:53:12;24.05;;;21.63;;
52776;SDS011;38656;54.260;20.822;2024-02-16T13:55:41;8.48;;;6.18;;
52776;SDS011;38656;54.260;20.822;2024-02-16T13:58:09;8.43;;;6.28;;
52776;SDS011;38656;54.260;20.822;2024-02-16T14:00:36;19.52;;;7.68;;
52776;SDS011;38656;54.260;20.822;2024-02-16T14:03:03;14.75;;;9.20;;
52776;SDS011;38656;54.260;20.822;2024-02-16T14:05:33;7.55;;;6.03;;
52776;SDS011;38656;54.260;20.822;2024-02-16T14:08:03;37.90;;;28.15;;
52776;SDS011;38656;54.260;20.822;2024-02-16T14:10:30;41.95;;;24.70;;
52776;SDS011;38656;54.260;20.822;2024-02-16T14:12:57;21.00;;;12.25;;
52776;SDS011;38656;54.260;20.822;2024-02-16T14:15:23;14.00;;;6.60;;